sensor_id;sensor_type;location;lat;lon;timestamp;pressure;altitude;pressure_sealevel;temperature;humidity
29215;BME280;16252;49.816;7.964;2024-02-15T00:00:54;100393.69;;;14.26;61.97
29215;BME280;16252;49.816;7.964;2024-02-15T00:03:19;100385.59;;;14.26;61.94
29215;BME280;16252;49.816;7.964;2024-02-15T00:05:46;100384.88;;;14.24;61.89
29215;BME280;16252;49.816;7.964;2024-02-15T00:08:11;100384.16;;;14.22;62.04
29215;BME280;16252;49.816;7.964;2024-02-15T00:10:37;100387.97;;;14.20;61.78
29215;BME280;16252;49.816;7.964;2024-02-15T00:13:02;100379.31;;;14.16;62.06
29215;BME280;16252;49.816;7.964;2024-02-15T00:15:27;100381.25;;;14.14;61.85
29215;BME280;16252;49.816;7.964;2024-02-15T00:17:52;100378.84;;;14.11;61.93
29215;BME280;16252;49.816;7.964;2024-02-15T00:20:17;100385.19;;;14.10;61.94
29215;BME280;16252;49.816;7.964;2024-02-15T00:22:43;100382.66;;;14.08;62.05
29215;BME280;16252;49.816;7.964;2024-02-15T00:25:09;100385.47;;;14.07;61.92
29215;BME280;16252;49.816;7.964;2024-02-15T00:27:36;100383.75;;;14.06;62.04
29215;BME280;16252;49.816;7.964;2024-02-15T00:30:02;100379.50;;;14.03;62.17
29215;BME280;16252;49.816;7.964;2024-02-15T00:32:28;100387.84;;;14.00;61.98
29215;BME280;16252;49.816;7.964;2024-02-15T00:34:53;100371.81;;;13.99;62.08
29215;BME280;16252;49.816;7.964;2024-02-15T00:37:18;100386.25;;;13.98;62.26
29215;BME280;16252;49.816;7.964;2024-02-15T00:39:43;100380.88;;;13.98;62.19
29215;BME280;16252;49.816;7.964;2024-02-15T00:42:09;100383.56;;;13.98;62.35
29215;BME280;16252;49.816;7.964;2024-02-15T00:44:34;100387.09;;;13.98;62.20
29215;BME280;16252;49.816;7.964;2024-02-15T00:46:59;100394.31;;;13.98;62.40
29215;BME280;16252;49.816;7.964;2024-02-15T00:49:24;100396.88;;;13.99;62.20
29215;BME280;16252;49.816;7.964;2024-02-15T00:51:52;100393.34;;;13.99;62.43
29215;BME280;16252;49.816;7.964;2024-02-15T00:54:18;100394.31;;;13.98;62.24
29215;BME280;16252;49.816;7.964;2024-02-15T00:56:43;100388.06;;;13.97;61.91
29215;BME280;16252;49.816;7.964;2024-02-15T00:59:08;100391.88;;;13.95;62.07
29215;BME280;16252;49.816;7.964;2024-02-15T01:01:34;100392.13;;;13.92;62.01
29215;BME280;16252;49.816;7.964;2024-02-15T01:04:03;100393.25;;;13.89;62.23
29215;BME280;16252;49.816;7.964;2024-02-15T01:06:29;100393.41;;;13.87;62.16
29215;BME280;16252;49.816;7.964;2024-02-15T01:08:54;100383.75;;;13.85;62.33
29215;BME280;16252;49.816;7.964;2024-02-15T01:11:19;100382.03;;;13.84;62.27
29215;BME280;16252;49.816;7.964;2024-02-15T01:13:44;100387.41;;;13.84;62.43
29215;BME280;16252;49.816;7.964;2024-02-15T01:16:09;100379.34;;;13.84;62.44
29215;BME280;16252;49.816;7.964;2024-02-15T01:18:35;100374.69;;;13.86;62.64
29215;BME280;16252;49.816;7.964;2024-02-15T01:21:00;100372.00;;;13.86;62.46
29215;BME280;16252;49.816;7.964;2024-02-15T01:23:26;100372.84;;;13.86;62.30
29215;BME280;16252;49.816;7.964;2024-02-15T01:25:52;100373.69;;;13.87;62.37
29215;BME280;16252;49.816;7.964;2024-02-15T01:28:17;100373.69;;;13.87;62.46
29215;BME280;16252;49.816;7.964;2024-02-15T01:30:42;100362.94;;;13.87;62.41
29215;BME280;16252;49.816;7.964;2024-02-15T01:33:08;100376.38;;;13.87;62.26
29215;BME280;16252;49.816;7.964;2024-02-15T01:35:34;100366.63;;;13.86;62.48
29215;BME280;16252;49.816;7.964;2024-02-15T01:38:00;100375.69;;;13.85;62.23
29215;BME280;16252;49.816;7.964;2024-02-15T01:40:25;100375.91;;;13.82;62.33
29215;BME280;16252;49.816;7.964;2024-02-15T01:42:50;100373.38;;;13.80;62.16
29215;BME280;16252;49.816;7.964;2024-02-15T01:45:16;100377.03;;;13.79;62.35
29215;BME280;16252;49.816;7.964;2024-02-15T01:47:42;100380.81;;;13.77;62.45
29215;BME280;16252;49.816;7.964;2024-02-15T01:50:07;100379.97;;;13.76;62.19
29215;BME280;16252;49.816;7.964;2024-02-15T01:52:33;100380.97;;;13.75;62.34
29215;BME280;16252;49.816;7.964;2024-02-15T01:54:58;100381.09;;;13.74;62.22
29215;BME280;16252;49.816;7.964;2024-02-15T01:57:24;100378.66;;;13.71;62.18
29215;BME280;16252;49.816;7.964;2024-02-15T01:59:50;100370.84;;;13.68;62.24
29215;BME280;16252;49.816;7.964;2024-02-15T02:02:17;100373.66;;;13.66;62.33
29215;BME280;16252;49.816;7.964;2024-02-15T02:04:43;100373.78;;;13.64;62.33
29215;BME280;16252;49.816;7.964;2024-02-15T02:07:10;100372.06;;;13.63;62.31
29215;BME280;16252;49.816;7.964;2024-02-15T02:09:35;100374.88;;;13.62;62.14
29215;BME280;16252;49.816;7.964;2024-02-15T02:12:01;100370.50;;;13.61;62.12
29215;BME280;16252;49.816;7.964;2024-02-15T02:14:26;100373.31;;;13.59;62.29
29215;BME280;16252;49.816;7.964;2024-02-15T02:16:51;100366.34;;;13.57;61.97
29215;BME280;16252;49.816;7.964;2024-02-15T02:19:16;100362.97;;;13.55;62.23
29215;BME280;16252;49.816;7.964;2024-02-15T02:21:42;100356.00;;;13.52;62.07
29215;BME280;16252;49.816;7.964;2024-02-15T02:24:12;100366.03;;;13.50;62.23
29215;BME280;16252;49.816;7.964;2024-02-15T02:26:38;100360.75;;;13.49;62.30
29215;BME280;16252;49.816;7.964;2024-02-15T02:29:03;100354.66;;;13.47;62.27
29215;BME280;16252;49.816;7.964;2024-02-15T02:31:32;100355.75;;;13.44;62.16
29215;BME280;16252;49.816;7.964;2024-02-15T02:33:57;100351.50;;;13.41;62.30
29215;BME280;16252;49.816;7.964;2024-02-15T02:36:23;100344.44;;;13.40;62.12
29215;BME280;16252;49.816;7.964;2024-02-15T02:38:51;100358.84;;;13.39;62.37
29215;BME280;16252;49.816;7.964;2024-02-15T02:41:17;100351.75;;;13.38;62.23
29215;BME280;16252;49.816;7.964;2024-02-15T02:43:44;100348.47;;;13.35;62.28
29215;BME280;16252;49.816;7.964;2024-02-15T02:46:12;100349.59;;;13.32;62.33
29215;BME280;16252;49.816;7.964;2024-02-15T02:48:38;100350.53;;;13.31;62.37
29215;BME280;16252;49.816;7.964;2024-02-15T02:51:03;100341.75;;;13.29;62.42
29215;BME280;16252;49.816;7.964;2024-02-15T02:53:28;100348.13;;;13.28;62.10
29215;BME280;16252;49.816;7.964;2024-02-15T02:55:55;100350.03;;;13.26;62.10
29215;BME280;16252;49.816;7.964;2024-02-15T02:58:21;100357.25;;;13.26;62.55
29215;BME280;16252;49.816;7.964;2024-02-15T03:00:46;100347.50;;;13.25;62.82
29215;BME280;16252;49.816;7.964;2024-02-15T03:03:12;100343.81;;;13.26;62.60
29215;BME280;16252;49.816;7.964;2024-02-15T03:05:37;100353.59;;;13.27;62.73
29215;BME280;16252;49.816;7.964;2024-02-15T03:08:05;100341.91;;;13.28;62.78
29215;BME280;16252;49.816;7.964;2024-02-15T03:10:30;100347.13;;;13.29;62.95
29215;BME280;16252;49.816;7.964;2024-02-15T03:12:56;100345.16;;;13.31;62.97
29215;BME280;16252;49.816;7.964;2024-02-15T03:15:21;100351.28;;;13.33;62.94
29215;BME280;16252;49.816;7.964;2024-02-15T03:17:47;100353.00;;;13.34;62.92
29215;BME280;16252;49.816;7.964;2024-02-15T03:20:13;100348.34;;;13.36;62.78
29215;BME280;16252;49.816;7.964;2024-02-15T03:22:58;100353.59;;;13.38;62.63
29215;BME280;16252;49.816;7.964;2024-02-15T03:25:24;100355.44;;;13.37;62.88
29215;BME280;16252;49.816;7.964;2024-02-15T03:27:51;100352.75;;;13.37;62.73
29215;BME280;16252;49.816;7.964;2024-02-15T03:30:18;100357.13;;;13.38;62.88
29215;BME280;16252;49.816;7.964;2024-02-15T03:32:44;100344.53;;;13.39;62.96
29215;BME280;16252;49.816;7.964;2024-02-15T03:35:09;100352.38;;;13.42;63.02
29215;BME280;16252;49.816;7.964;2024-02-15T03:37:35;100343.31;;;13.43;62.83
29215;BME280;16252;49.816;7.964;2024-02-15T03:40:03;100347.59;;;13.46;63.06
29215;BME280;16252;49.816;7.964;2024-02-15T03:42:29;100337.56;;;13.48;63.13
29215;BME280;16252;49.816;7.964;2024-02-15T03:44:54;100339.16;;;13.50;62.88
29215;BME280;16252;49.816;7.964;2024-02-15T03:47:20;100344.38;;;13.52;62.85
29215;BME280;16252;49.816;7.964;2024-02-15T03:49:45;100343.41;;;13.53;62.78
29215;BME280;16252;49.816;7.964;2024-02-15T03:52:10;100339.59;;;13.55;62.94
29215;BME280;16252;49.816;7.964;2024-02-15T03:54:35;100349.38;;;13.56;62.91
29215;BME280;16252;49.816;7.964;2024-02-15T03:57:01;100340.34;;;13.57;62.73
29215;BME280;16252;49.816;7.964;2024-02-15T03:59:26;100352.69;;;13.60;62.97
29215;BME280;16252;49.816;7.964;2024-02-15T04:01:55;100346.31;;;13.61;62.90
29215;BME280;16252;49.816;7.964;2024-02-15T04:04:21;100346.31;;;13.61;62.90
29215;BME280;16252;49.816;7.964;2024-02-15T04:06:47;100346.88;;;13.64;63.02
29215;BME280;16252;49.816;7.964;2024-02-15T04:09:12;100348.47;;;13.67;63.05
29215;BME280;16252;49.816;7.964;2024-02-15T04:11:37;100345.66;;;13.69;62.84
29215;BME280;16252;49.816;7.964;2024-02-15T04:14:03;100344.66;;;13.70;63.17
29215;BME280;16252;49.816;7.964;2024-02-15T04:16:28;100356.03;;;13.73;63.08
29215;BME280;16252;49.816;7.964;2024-02-15T04:18:55;100352.34;;;13.74;62.86
29215;BME280;16252;49.816;7.964;2024-02-15T04:21:22;100357.63;;;13.76;63.01
29215;BME280;16252;49.816;7.964;2024-02-15T04:23:47;100355.50;;;13.79;62.87
29215;BME280;16252;49.816;7.964;2024-02-15T04:26:13;100346.59;;;13.79;63.10
29215;BME280;16252;49.816;7.964;2024-02-15T04:28:39;100343.78;;;13.80;62.95
29215;BME280;16252;49.816;7.964;2024-02-15T04:31:04;100339.97;;;13.83;62.92
29215;BME280;16252;49.816;7.964;2024-02-15T04:33:33;100340.72;;;13.85;63.07
29215;BME280;16252;49.816;7.964;2024-02-15T04:35:58;100340.56;;;13.86;63.00
29215;BME280;16252;49.816;7.964;2024-02-15T04:38:25;100333.22;;;13.88;63.05
29215;BME280;16252;49.816;7.964;2024-02-15T04:40:50;100341.19;;;13.90;62.86
29215;BME280;16252;49.816;7.964;2024-02-15T04:43:16;100338.34;;;13.92;63.08
29215;BME280;16252;49.816;7.964;2024-02-15T04:45:41;100333.69;;;13.94;62.88
29215;BME280;16252;49.816;7.964;2024-02-15T04:48:06;100327.31;;;13.95;62.89
29215;BME280;16252;49.816;7.964;2024-02-15T04:50:32;100326.19;;;13.97;63.17
29215;BME280;16252;49.816;7.964;2024-02-15T04:52:57;100331.56;;;13.97;63.03
29215;BME280;16252;49.816;7.964;2024-02-15T04:55:22;100323.38;;;13.99;62.85
29215;BME280;16252;49.816;7.964;2024-02-15T04:57:48;100322.38;;;14.00;62.90
29215;BME280;16252;49.816;7.964;2024-02-15T05:00:14;100321.44;;;14.01;62.87
29215;BME280;16252;49.816;7.964;2024-02-15T05:02:40;100316.88;;;14.01;62.94
29215;BME280;16252;49.816;7.964;2024-02-15T05:05:08;100327.53;;;14.03;62.90
29215;BME280;16252;49.816;7.964;2024-02-15T05:07:34;100323.84;;;14.04;62.87
29215;BME280;16252;49.816;7.964;2024-02-15T05:10:02;100326.41;;;14.05;62.89
29215;BME280;16252;49.816;7.964;2024-02-15T05:12:31;100320.16;;;14.05;62.93
29215;BME280;16252;49.816;7.964;2024-02-15T05:14:56;100328.22;;;14.05;62.94
29215;BME280;16252;49.816;7.964;2024-02-15T05:17:21;100323.84;;;14.04;62.86
29215;BME280;16252;49.816;7.964;2024-02-15T05:19:46;100318.47;;;14.04;62.85
29215;BME280;16252;49.816;7.964;2024-02-15T05:22:12;100319.47;;;14.03;62.79
29215;BME280;16252;49.816;7.964;2024-02-15T05:24:38;100326.53;;;14.04;62.78
29215;BME280;16252;49.816;7.964;2024-02-15T05:27:04;100324.84;;;14.03;62.88
29215;BME280;16252;49.816;7.964;2024-02-15T05:29:29;100322.16;;;14.03;62.86
29215;BME280;16252;49.816;7.964;2024-02-15T05:31:58;100319.47;;;14.03;62.82
29215;BME280;16252;49.816;7.964;2024-02-15T05:34:24;100324.13;;;14.01;62.96
29215;BME280;16252;49.816;7.964;2024-02-15T05:36:49;100323.25;;;14.00;62.74
29215;BME280;16252;49.816;7.964;2024-02-15T05:39:14;100311.78;;;13.98;62.88
29215;BME280;16252;49.816;7.964;2024-02-15T05:41:39;100319.84;;;13.98;62.99
29215;BME280;16252;49.816;7.964;2024-02-15T05:44:05;100318.00;;;13.99;62.88
29215;BME280;16252;49.816;7.964;2024-02-15T05:46:31;100319.00;;;13.98;63.02
29215;BME280;16252;49.816;7.964;2024-02-15T05:48:57;100324.38;;;13.98;63.04
29215;BME280;16252;49.816;7.964;2024-02-15T05:51:22;100322.53;;;13.98;63.05
29215;BME280;16252;49.816;7.964;2024-02-15T05:53:47;100327.06;;;13.98;62.89
29215;BME280;16252;49.816;7.964;2024-02-15T05:56:14;100326.19;;;13.97;62.94
29215;BME280;16252;49.816;7.964;2024-02-15T05:58:39;100321.69;;;13.98;62.96
29215;BME280;16252;49.816;7.964;2024-02-15T06:01:05;100318.13;;;13.97;63.02
29215;BME280;16252;49.816;7.964;2024-02-15T06:03:31;100319.84;;;13.98;62.92
29215;BME280;16252;49.816;7.964;2024-02-15T06:05:58;100311.78;;;13.98;62.98
29215;BME280;16252;49.816;7.964;2024-02-15T06:08:25;100301.03;;;13.98;63.03
29215;BME280;16252;49.816;7.964;2024-02-15T06:10:50;100306.41;;;13.98;63.06
29215;BME280;16252;49.816;7.964;2024-02-15T06:13:15;100301.88;;;13.99;63.08
29215;BME280;16252;49.816;7.964;2024-02-15T06:15:40;100304.56;;;13.99;63.04
29215;BME280;16252;49.816;7.964;2024-02-15T06:18:05;100296.75;;;13.96;62.57
29215;BME280;16252;49.816;7.964;2024-02-15T06:20:34;100296.16;;;13.92;62.80
29215;BME280;16252;49.816;7.964;2024-02-15T06:22:59;100286.66;;;13.88;62.46
29215;BME280;16252;49.816;7.964;2024-02-15T06:25:24;100288.88;;;13.83;62.40
29215;BME280;16252;49.816;7.964;2024-02-15T06:27:50;100290.13;;;13.79;62.55
29215;BME280;16252;49.816;7.964;2024-02-15T06:30:18;100293.19;;;13.74;62.46
29215;BME280;16252;49.816;7.964;2024-02-15T06:33:02;100290.03;;;13.69;62.70
29215;BME280;16252;49.816;7.964;2024-02-15T06:35:46;100288.63;;;13.65;62.49
29215;BME280;16252;49.816;7.964;2024-02-15T06:38:30;100290.84;;;13.60;62.60
29215;BME280;16252;49.816;7.964;2024-02-15T06:41:14;100287.69;;;13.55;62.56
29215;BME280;16252;49.816;7.964;2024-02-15T06:43:39;100297.72;;;13.53;62.54
29215;BME280;16252;49.816;7.964;2024-02-15T06:46:10;100302.34;;;13.51;62.60
29215;BME280;16252;49.816;7.964;2024-02-15T06:48:36;100310.53;;;13.49;62.55
29215;BME280;16252;49.816;7.964;2024-02-15T06:51:01;100303.47;;;13.48;62.76
29215;BME280;16252;49.816;7.964;2024-02-15T06:53:28;100306.28;;;13.47;62.80
29215;BME280;16252;49.816;7.964;2024-02-15T06:55:53;100304.56;;;13.46;62.82
29215;BME280;16252;49.816;7.964;2024-02-15T06:58:18;100304.69;;;13.44;62.82
29215;BME280;16252;49.816;7.964;2024-02-15T07:00:43;100310.94;;;13.44;62.87
29215;BME280;16252;49.816;7.964;2024-02-15T07:03:09;100304.84;;;13.42;62.84
29215;BME280;16252;49.816;7.964;2024-02-15T07:05:35;100312.06;;;13.42;62.95
29215;BME280;16252;49.816;7.964;2024-02-15T07:08:03;100313.88;;;13.41;62.77
29215;BME280;16252;49.816;7.964;2024-02-15T07:10:30;100314.75;;;13.42;62.96
29215;BME280;16252;49.816;7.964;2024-02-15T07:12:55;100326.34;;;13.42;63.00
29215;BME280;16252;49.816;7.964;2024-02-15T07:15:21;100325.50;;;13.42;62.88
29215;BME280;16252;49.816;7.964;2024-02-15T07:17:46;100316.69;;;13.40;62.76
29215;BME280;16252;49.816;7.964;2024-02-15T07:20:11;100315.69;;;13.41;62.69
29215;BME280;16252;49.816;7.964;2024-02-15T07:22:39;100317.53;;;13.40;62.96
29215;BME280;16252;49.816;7.964;2024-02-15T07:25:04;100324.63;;;13.41;63.08
29215;BME280;16252;49.816;7.964;2024-02-15T07:27:29;100322.91;;;13.40;62.94
29215;BME280;16252;49.816;7.964;2024-02-15T07:29:55;100324.63;;;13.41;63.16
29215;BME280;16252;49.816;7.964;2024-02-15T07:32:21;100323.66;;;13.42;63.14
29215;BME280;16252;49.816;7.964;2024-02-15T07:34:46;100335.13;;;13.44;63.10
29215;BME280;16252;49.816;7.964;2024-02-15T07:37:12;100337.69;;;13.46;63.21
29215;BME280;16252;49.816;7.964;2024-02-15T07:39:38;100338.53;;;13.47;63.11
29215;BME280;16252;49.816;7.964;2024-02-15T07:42:05;100332.91;;;13.50;63.31
29215;BME280;16252;49.816;7.964;2024-02-15T07:44:30;100336.31;;;13.52;63.35
29215;BME280;16252;49.816;7.964;2024-02-15T07:46:57;100345.94;;;13.54;63.19
29215;BME280;16252;49.816;7.964;2024-02-15T07:49:23;100341.19;;;13.58;63.26
29215;BME280;16252;49.816;7.964;2024-02-15T07:51:48;100343.63;;;13.61;63.52
29215;BME280;16252;49.816;7.964;2024-02-15T07:54:18;100343.50;;;13.62;63.50
29215;BME280;16252;49.816;7.964;2024-02-15T07:56:45;100345.94;;;13.65;63.33
29215;BME280;16252;49.816;7.964;2024-02-15T07:59:11;100354.56;;;13.69;63.47
29215;BME280;16252;49.816;7.964;2024-02-15T08:01:36;100359.69;;;13.72;63.51
29215;BME280;16252;49.816;7.964;2024-02-15T08:04:01;100354.94;;;13.76;63.63
29215;BME280;16252;49.816;7.964;2024-02-15T08:06:27;100352.81;;;13.79;63.50
29215;BME280;16252;49.816;7.964;2024-02-15T08:08:53;100348.91;;;13.83;63.54
29215;BME280;16252;49.816;7.964;2024-02-15T08:11:18;100345.22;;;13.84;63.56
29215;BME280;16252;49.816;7.964;2024-02-15T08:13:47;100343.13;;;13.88;63.69
29215;BME280;16252;49.816;7.964;2024-02-15T08:16:15;100344.56;;;13.92;63.72
29215;BME280;16252;49.816;7.964;2024-02-15T08:18:41;100343.34;;;13.96;63.66
29215;BME280;16252;49.816;7.964;2024-02-15T08:21:06;100343.78;;;14.01;63.73
29215;BME280;16252;49.816;7.964;2024-02-15T08:23:31;100339.00;;;14.05;63.95
29215;BME280;16252;49.816;7.964;2024-02-15T08:25:57;100346.66;;;14.09;63.86
29215;BME280;16252;49.816;7.964;2024-02-15T08:28:22;100342.59;;;14.15;63.72
29215;BME280;16252;49.816;7.964;2024-02-15T08:30:48;100336.09;;;14.18;63.95
29215;BME280;16252;49.816;7.964;2024-02-15T08:33:13;100340.25;;;14.22;63.86
29215;BME280;16252;49.816;7.964;2024-02-15T08:35:38;100337.16;;;14.26;63.70
29215;BME280;16252;49.816;7.964;2024-02-15T08:38:05;100335.03;;;14.30;63.81
29215;BME280;16252;49.816;7.964;2024-02-15T08:40:31;100341.16;;;14.32;63.71
29215;BME280;16252;49.816;7.964;2024-02-15T08:42:56;100339.06;;;14.36;63.88
29215;BME280;16252;49.816;7.964;2024-02-15T08:45:21;100337.94;;;14.38;63.74
29215;BME280;16252;49.816;7.964;2024-02-15T08:47:46;100342.06;;;14.42;63.97
29215;BME280;16252;49.816;7.964;2024-02-15T08:50:11;100337.28;;;14.46;63.76
29215;BME280;16252;49.816;7.964;2024-02-15T08:52:37;100340.41;;;14.51;64.08
29215;BME280;16252;49.816;7.964;2024-02-15T08:55:05;100325.72;;;14.55;63.91
29215;BME280;16252;49.816;7.964;2024-02-15T08:57:32;100328.84;;;14.60;63.96
29215;BME280;16252;49.816;7.964;2024-02-15T08:59:57;100332.16;;;14.64;63.98
29215;BME280;16252;49.816;7.964;2024-02-15T09:02:22;100329.91;;;14.69;64.12
29215;BME280;16252;49.816;7.964;2024-02-15T09:04:47;100330.34;;;14.74;64.30
29215;BME280;16252;49.816;7.964;2024-02-15T09:07:12;100337.03;;;14.80;64.12
29215;BME280;16252;49.816;7.964;2024-02-15T09:09:37;100333.06;;;14.84;63.96
29215;BME280;16252;49.816;7.964;2024-02-15T09:12:03;100339.88;;;14.88;64.13
29215;BME280;16252;49.816;7.964;2024-02-15T09:14:34;100334.09;;;14.92;64.01
29215;BME280;16252;49.816;7.964;2024-02-15T09:17:01;100334.66;;;14.96;64.04
29215;BME280;16252;49.816;7.964;2024-02-15T09:19:32;100332.56;;;15.00;63.85
29215;BME280;16252;49.816;7.964;2024-02-15T09:21:57;100328.72;;;15.02;63.97
29215;BME280;16252;49.816;7.964;2024-02-15T09:24:22;100324.91;;;15.05;63.73
29215;BME280;16252;49.816;7.964;2024-02-15T09:26:50;100321.81;;;15.09;63.79
29215;BME280;16252;49.816;7.964;2024-02-15T09:29:15;100325.19;;;15.11;63.90
29215;BME280;16252;49.816;7.964;2024-02-15T09:31:40;100314.16;;;15.14;63.88
29215;BME280;16252;49.816;7.964;2024-02-15T09:34:05;100311.03;;;15.19;63.97
29215;BME280;16252;49.816;7.964;2024-02-15T09:36:35;100311.44;;;15.24;63.84
29215;BME280;16252;49.816;7.964;2024-02-15T09:39:02;100311.91;;;15.29;64.01
29215;BME280;16252;49.816;7.964;2024-02-15T09:41:28;100307.09;;;15.33;64.10
29215;BME280;16252;49.816;7.964;2024-02-15T09:43:53;100311.06;;;15.38;63.88
29215;BME280;16252;49.816;7.964;2024-02-15T09:46:18;100312.63;;;15.41;63.84
29215;BME280;16252;49.816;7.964;2024-02-15T09:48:45;100304.25;;;15.44;63.59
29215;BME280;16252;49.816;7.964;2024-02-15T09:51:12;100306.69;;;15.47;63.78
29215;BME280;16252;49.816;7.964;2024-02-15T09:53:37;100305.38;;;15.51;63.74
29215;BME280;16252;49.816;7.964;2024-02-15T09:56:03;100300.41;;;15.56;64.00
29215;BME280;16252;49.816;7.964;2024-02-15T09:58:29;100296.16;;;15.64;64.17
29215;BME280;16252;49.816;7.964;2024-02-15T10:01:00;100299.03;;;15.72;64.30
29215;BME280;16252;49.816;7.964;2024-02-15T10:03:29;100291.94;;;15.80;64.32
29215;BME280;16252;49.816;7.964;2024-02-15T10:05:56;100294.63;;;15.90;64.55
29215;BME280;16252;49.816;7.964;2024-02-15T10:08:22;100290.91;;;16.01;64.50
29215;BME280;16252;49.816;7.964;2024-02-15T10:11:04;100287.19;;;16.12;64.28
29215;BME280;16252;49.816;7.964;2024-02-15T10:13:30;100291.41;;;16.24;64.34
29215;BME280;16252;49.816;7.964;2024-02-15T10:15:56;100284.97;;;16.35;64.62
29215;BME280;16252;49.816;7.964;2024-02-15T10:18:22;100283.81;;;16.47;64.42
29215;BME280;16252;49.816;7.964;2024-02-15T10:20:47;100283.59;;;16.58;64.44
29215;BME280;16252;49.816;7.964;2024-02-15T10:23:22;100277.00;;;16.71;64.15
29215;BME280;16252;49.816;7.964;2024-02-15T10:25:47;100279.56;;;16.82;63.96
29215;BME280;16252;49.816;7.964;2024-02-15T10:28:12;100271.41;;;16.92;63.79
29215;BME280;16252;49.816;7.964;2024-02-15T10:30:41;100275.88;;;17.01;63.91
29215;BME280;16252;49.816;7.964;2024-02-15T10:33:10;100265.31;;;17.07;63.86
29215;BME280;16252;49.816;7.964;2024-02-15T10:35:43;100268.09;;;17.16;63.55
29215;BME280;16252;49.816;7.964;2024-02-15T10:38:09;100257.66;;;17.21;63.20
29215;BME280;16252;49.816;7.964;2024-02-15T10:40:36;100258.91;;;17.26;63.35
29215;BME280;16252;49.816;7.964;2024-02-15T10:43:05;100260.16;;;17.32;63.26
29215;BME280;16252;49.816;7.964;2024-02-15T10:45:31;100257.66;;;17.39;63.45
29215;BME280;16252;49.816;7.964;2024-02-15T10:47:56;100253.50;;;17.44;63.13
29215;BME280;16252;49.816;7.964;2024-02-15T10:50:22;100255.59;;;17.50;62.67
29215;BME280;16252;49.816;7.964;2024-02-15T10:55:22;100244.69;;;17.60;62.94
29215;BME280;16252;49.816;7.964;2024-02-15T10:57:51;100242.34;;;17.65;62.85
29215;BME280;16252;49.816;7.964;2024-02-15T11:00:16;100243.56;;;17.71;63.10
29215;BME280;16252;49.816;7.964;2024-02-15T11:03:01;100237.53;;;17.77;62.88
29215;BME280;16252;49.816;7.964;2024-02-15T11:05:29;100227.09;;;17.82;62.85
29215;BME280;16252;49.816;7.964;2024-02-15T11:07:56;100223.22;;;17.85;62.58
29215;BME280;16252;49.816;7.964;2024-02-15T11:10:22;100223.78;;;17.88;62.50
29215;BME280;16252;49.816;7.964;2024-02-15T11:12:47;100220.75;;;17.91;62.07
29215;BME280;16252;49.816;7.964;2024-02-15T11:15:17;100213.31;;;17.93;62.11
29215;BME280;16252;49.816;7.964;2024-02-15T11:17:58;100214.03;;;17.95;62.43
29215;BME280;16252;49.816;7.964;2024-02-15T11:22:58;100210.97;;;17.98;62.22
29215;BME280;16252;49.816;7.964;2024-02-15T11:25:39;100201.31;;;17.96;62.20
29215;BME280;16252;49.816;7.964;2024-02-15T11:30:49;100200.63;;;17.94;62.02
29215;BME280;16252;49.816;7.964;2024-02-15T11:33:47;100194.53;;;17.92;61.98
29215;BME280;16252;49.816;7.964;2024-02-15T11:36:06;100193.81;;;17.90;61.83
29215;BME280;16252;49.816;7.964;2024-02-15T11:38:36;100184.88;;;17.89;62.00
29215;BME280;16252;49.816;7.964;2024-02-15T11:41:05;100197.56;;;17.89;62.01
29215;BME280;16252;49.816;7.964;2024-02-15T11:46:08;100184.34;;;17.86;61.89
29215;BME280;16252;49.816;7.964;2024-02-15T11:48:35;100184.50;;;17.84;62.01
29215;BME280;16252;49.816;7.964;2024-02-15T11:51:01;100180.09;;;17.83;61.77
29215;BME280;16252;49.816;7.964;2024-02-15T11:53:26;100175.69;;;17.82;62.00
29215;BME280;16252;49.816;7.964;2024-02-15T11:55:51;100185.66;;;17.82;61.94
29215;BME280;16252;49.816;7.964;2024-02-15T11:58:24;100174.84;;;17.82;61.93
29215;BME280;16252;49.816;7.964;2024-02-15T12:01:01;100170.44;;;17.81;61.92
29215;BME280;16252;49.816;7.964;2024-02-15T12:03:45;100168.72;;;17.80;61.96
29215;BME280;16252;49.816;7.964;2024-02-15T12:06:30;100157.03;;;17.79;62.00
29215;BME280;16252;49.816;7.964;2024-02-15T12:09:17;100160.59;;;17.80;62.10
29215;BME280;16252;49.816;7.964;2024-02-15T12:12:00;100155.88;;;17.82;61.85
29215;BME280;16252;49.816;7.964;2024-02-15T12:14:44;100147.63;;;17.83;62.02
29215;BME280;16252;49.816;7.964;2024-02-15T12:17:28;100149.31;;;17.84;62.17
29215;BME280;16252;49.816;7.964;2024-02-15T12:20:12;100149.16;;;17.86;61.94
29215;BME280;16252;49.816;7.964;2024-02-15T12:22:46;100152.72;;;17.86;62.10
29215;BME280;16252;49.816;7.964;2024-02-15T12:25:15;100144.25;;;17.89;62.15
29215;BME280;16252;49.816;7.964;2024-02-15T12:27:41;100139.53;;;17.91;61.99
29215;BME280;16252;49.816;7.964;2024-02-15T12:30:08;100138.38;;;17.94;62.15
29215;BME280;16252;49.816;7.964;2024-02-15T12:32:37;100138.03;;;17.97;61.99
29215;BME280;16252;49.816;7.964;2024-02-15T12:35:10;100126.03;;;18.00;61.95
29215;BME280;16252;49.816;7.964;2024-02-15T12:37:40;100134.00;;;18.01;61.99
29215;BME280;16252;49.816;7.964;2024-02-15T12:40:12;100133.16;;;18.01;61.73
29215;BME280;16252;49.816;7.964;2024-02-15T12:42:41;100127.56;;;18.02;61.92
29215;BME280;16252;49.816;7.964;2024-02-15T12:45:06;100124.88;;;18.02;61.78
29215;BME280;16252;49.816;7.964;2024-02-15T12:47:32;100120.16;;;18.04;61.67
29215;BME280;16252;49.816;7.964;2024-02-15T12:49:58;100120.16;;;18.04;61.63
29215;BME280;16252;49.816;7.964;2024-02-15T12:52:33;100107.44;;;18.05;61.56
29215;BME280;16252;49.816;7.964;2024-02-15T12:55:06;100111.00;;;18.05;61.31
29215;BME280;16252;49.816;7.964;2024-02-15T12:57:33;100118.13;;;18.06;61.45
29215;BME280;16252;49.816;7.964;2024-02-15T12:59:58;100119.81;;;18.07;61.48